Time;durP1;ratioP1;P1;durP2;ratioP2;P2;SDS_P1;SDS_P2;PMS_P1;PMS_P2;Temp;Humidity;BMP_temperature;BMP_pressure;BME280_temperature;BME280_humidity;BME280_pressure;Samples;Min_cycle;Max_cycle;Signal;HPM_P1;HPM_P2
2022/03/10 01:02:55;;;;;;;3.60;2.25;;;;;;;-145.06;0.00;60892.56;4639089;29;20091;-91
2022/03/10 01:06:38;;;;;;;4.40;2.58;;;;;;;-145.06;0.00;60892.56;4621641;30;20379;-91
2022/03/10 02:32:11;;;;;;;;;;;;;;;;;;;;;
2022/03/10 02:39:24;;;;;;;;;;;;;;;;;;;;;
2022/03/10 02:42:58;;;;;;;;;;;;;;;;;;;;;
2022/03/10 02:46:31;;;;;;;;;;;;;;;;;;;;;
2022/03/10 02:53:31;;;;;;;;;;;;;;;;;;;;;
2022/03/10 03:00:53;;;;;;;5.85;2.92;;;;;;;-145.06;0.00;60892.56;4640401;29;20120;-91
2022/03/10 03:04:16;;;;;;;4.32;2.58;;;;;;;-145.06;0.00;60892.56;4671848;29;20030;-91
2022/03/10 03:07:34;;;;;;;4.32;2.47;;;;;;;-145.06;0.00;60892.56;4659072;29;20030;-92
2022/03/10 03:10:39;;;;;;;4.30;2.65;;;;;;;-145.06;0.00;60892.56;4645678;29;20042;-92
2022/03/10 03:17:52;;;;;;;;;;;;;;;;;;;;;
2022/03/10 03:21:12;;;;;;;4.30;2.63;;;;;;;-145.06;0.00;60892.56;4681124;29;20034;-92
2022/03/10 03:24:46;;;;;;;4.78;2.70;;;;;;;-145.06;0.00;60892.56;4668097;29;20097;-93
2022/03/10 03:28:46;;;;;;;;;;;;;;;;;;;;;
2022/03/10 03:31:58;;;;;;;3.78;2.17;;;;;;;-145.06;0.00;60892.56;4648897;29;20403;-91
2022/03/10 03:35:31;;;;;;;;;;;;;;;;;;;;;
2022/03/10 03:45:23;;;;;;;4.15;2.65;;;;;;;-145.06;0.00;60892.56;4672597;29;20038;-91
2022/03/10 03:51:39;;;;;;;4.43;2.60;;;;;;;-145.06;0.00;60892.56;4679382;29;20033;-92
2022/03/10 03:55:39;;;;;;;;;;;;;;;;;;;;;
2022/03/10 03:58:48;;;;;;;4.15;2.80;;;;;;;-145.06;0.00;60892.56;4674162;29;20492;-92
2022/03/10 04:01:50;;;;;;;5.30;2.95;;;;;;;-145.06;0.00;60892.56;4676034;29;20037;-91
2022/03/10 04:05:05;;;;;;;5.53;3.30;;;;;;;-145.06;0.00;60892.56;4671434;29;20061;-92
2022/03/10 04:07:55;;;;;;;4.00;2.55;;;;;;;-145.06;0.00;60892.56;4671799;29;20034;-92
2022/03/10 04:10:56;;;;;;;;;;;;;;;;;;;;;
2022/03/10 04:13:56;;;;;;;4.05;2.33;;;;;;;-145.06;0.00;60892.56;4679682;29;19913;-90
2022/03/10 04:16:38;;;;;;;4.07;2.53;;;;;;;-145.06;0.00;60892.56;4688434;29;20371;-91
2022/03/10 04:19:22;;;;;;;3.55;2.53;;;;;;;-145.06;0.00;60892.56;4670293;29;20046;-91
2022/03/10 04:22:03;;;;;;;5.38;3.13;;;;;;;-145.06;0.00;60892.56;4667743;29;20486;-92
2022/03/10 04:24:48;;;;;;;4.72;2.63;;;;;;;-145.06;0.00;60892.56;4686795;29;20034;-91
2022/03/10 04:27:35;;;;;;;5.13;3.17;;;;;;;-145.06;0.00;60892.56;4705513;29;20520;-91
2022/03/10 04:30:23;;;;;;;6.10;3.30;;;;;;;-145.06;0.00;60892.56;4675319;29;20042;-92
2022/03/10 04:33:02;;;;;;;6.22;3.42;;;;;;;-145.06;0.00;60892.56;4681199;29;20037;-91
2022/03/10 04:35:48;;;;;;;6.63;3.50;;;;;;;-145.06;0.00;60892.56;4684913;29;20481;-91
2022/03/10 04:38:29;;;;;;;5.90;3.55;;;;;;;-145.06;0.00;60892.56;4659145;29;20034;-92
2022/03/10 04:41:09;;;;;;;5.82;3.15;;;;;;;-145.06;0.00;60892.56;4674956;29;20065;-91
2022/03/10 04:43:51;;;;;;;6.22;3.28;;;;;;;-145.06;0.00;60892.56;4686828;29;20030;-91
2022/03/10 04:46:32;;;;;;;6.57;3.10;;;;;;;-145.06;0.00;60892.56;4687233;29;20398;-91
2022/03/10 04:49:12;;;;;;;5.68;3.08;;;;;;;-145.06;0.00;60892.56;4702735;29;20038;-91
2022/03/10 04:51:54;;;;;;;4.32;2.85;;;;;;;-145.06;0.00;60892.56;4676885;29;20041;-90
2022/03/10 04:54:33;;;;;;;4.75;2.67;;;;;;;-145.06;0.00;60892.56;4674284;29;20113;-92
2022/03/10 04:57:17;;;;;;;4.93;2.77;;;;;;;-145.06;0.00;60892.56;4675225;29;20038;-91
2022/03/10 04:59:56;;;;;;;5.25;3.20;;;;;;;-145.06;0.00;60892.56;4674160;29;20034;-91
2022/03/10 05:02:36;;;;;;;6.13;3.45;;;;;;;-145.06;0.00;60892.56;4668978;29;20030;-91
2022/03/10 05:05:31;;;;;;;4.97;3.10;;;;;;;-145.06;0.00;60892.56;4657866;29;20026;-90
2022/03/10 05:08:10;;;;;;;4.07;2.63;;;;;;;-145.06;0.00;60892.56;4688500;29;20070;-90
2022/03/10 05:10:49;;;;;;;5.20;3.00;;;;;;;-145.06;0.00;60892.56;4675617;29;20038;-92
2022/03/10 05:13:28;;;;;;;5.68;3.35;;;;;;;-145.06;0.00;60892.56;4686984;29;20034;-91
2022/03/10 05:16:22;;;;;;;4.77;3.17;;;;;;;-145.06;0.00;60892.56;4674423;29;20058;-90
2022/03/10 05:19:01;;;;;;;5.38;3.17;;;;;;;-145.06;0.00;60892.56;4664654;29;20942;-91
2022/03/10 05:21:40;;;;;;;3.78;2.58;;;;;;;-145.06;0.00;60892.56;4692021;29;20033;-90
2022/03/10 05:24:19;;;;;;;4.47;2.92;;;;;;;-145.06;0.00;60892.56;4672616;29;20038;-92
2022/03/10 05:27:00;;;;;;;6.20;3.07;;;;;;;-145.06;0.00;60892.56;4677014;29;20041;-92
2022/03/10 05:29:43;;;;;;;5.05;2.90;;;;;;;-145.06;0.00;60892.56;4677463;29;20050;-92
2022/03/10 05:32:22;;;;;;;4.57;2.60;;;;;;;-145.06;0.00;60892.56;4690963;29;20057;-92
2022/03/10 05:35:03;;;;;;;3.97;2.47;;;;;;;-145.06;0.00;60892.56;4673015;29;20042;-92
2022/03/10 05:37:44;;;;;;;3.45;2.47;;;;;;;-145.06;0.00;60892.56;4664377;29;20038;-90
2022/03/10 05:40:23;;;;;;;6.50;2.85;;;;;;;-145.06;0.00;60892.56;4677613;29;20034;-91
2022/03/10 05:43:02;;;;;;;4.83;2.73;;;;;;;-145.06;0.00;60892.56;4683760;29;20045;-92
2022/03/10 05:45:41;;;;;;;4.47;2.95;;;;;;;-145.06;0.00;60892.56;4690287;29;20022;-91
2022/03/10 05:48:20;;;;;;;4.60;3.10;;;;;;;-145.06;0.00;60892.56;4691510;29;20034;-92
2022/03/10 05:50:59;;;;;;;4.20;2.40;;;;;;;-145.06;0.00;60892.56;4692013;29;20694;-90
2022/03/10 05:53:38;;;;;;;4.43;3.03;;;;;;;-145.06;0.00;60892.56;4690175;29;20033;-92
2022/03/10 05:56:18;;;;;;;5.90;3.30;;;;;;;-145.06;0.00;60892.56;4690766;29;20034;-92
2022/03/10 05:58:57;;;;;;;;;;;;;;;-145.06;0.00;60892.56;4672215;29;20034;-90
2022/03/10 06:02:11;;;;;;;5.00;2.60;;;;;;;-145.06;0.00;60892.56;4660340;29;19913;-90
2022/03/10 06:05:06;;;;;;;4.50;2.63;;;;;;;-145.06;0.00;60892.56;4685474;29;20038;-91
2022/03/10 06:08:08;;;;;;;4.30;2.42;;;;;;;-145.06;0.00;60892.56;4667809;29;20034;-92
2022/03/10 06:10:47;;;;;;;4.78;2.70;;;;;;;-145.06;0.00;60892.56;4683887;29;20065;-91
2022/03/10 06:13:42;;;;;;;;;;;;;;;;;;;;;
2022/03/10 06:16:21;;;;;;;5.20;3.00;;;;;;;-145.06;0.00;60892.56;4677494;29;20030;-92
2022/03/10 06:19:08;;;;;;;4.47;2.97;;;;;;;-145.06;0.00;60892.56;4677233;29;20034;-92
2022/03/10 06:25:33;;;;;;;4.97;2.58;;;;;;;-145.06;0.00;60892.56;4615323;29;20717;-92
2022/03/10 06:28:12;;;;;;;4.25;2.70;;;;;;;-145.06;0.00;60892.56;4699048;29;20046;-91
2022/03/10 06:31:04;;;;;;;4.72;3.05;;;;;;;-145.06;0.00;60892.56;4689977;29;20042;-91
2022/03/10 06:33:43;;;;;;;5.22;3.20;;;;;;;-145.06;0.00;60892.56;4689915;29;20041;-91
2022/03/10 06:36:22;;;;;;;5.70;3.15;;;;;;;-145.06;0.00;60892.56;4672184;29;20478;-92
2022/03/10 06:39:00;;;;;;;6.72;3.15;;;;;;;-145.06;0.00;60892.56;4681911;29;20047;-92
2022/03/10 06:41:40;;;;;;;6.47;3.60;;;;;;;-145.06;0.00;60892.56;4711617;29;20033;-91
2022/03/10 06:44:19;;;;;;;9.05;3.72;;;;;;;-145.06;0.00;60892.56;4694603;29;20307;-91
2022/03/10 06:46:58;;;;;;;7.03;3.63;;;;;;;-145.06;0.00;60892.56;4681462;29;20041;-91
2022/03/10 06:49:37;;;;;;;6.68;4.03;;;;;;;-145.06;0.00;60892.56;4697557;29;20495;-91
2022/03/10 06:52:19;;;;;;;7.03;3.73;;;;;;;-145.06;0.00;60892.56;4689351;29;20038;-91
2022/03/10 06:55:01;;;;;;;4.72;2.95;;;;;;;-145.06;0.00;60892.56;4689010;29;20605;-91
2022/03/10 06:57:41;;;;;;;6.43;3.80;;;;;;;-145.06;0.00;60892.56;4685486;29;20066;-90
2022/03/10 07:00:20;;;;;;;5.43;3.15;;;;;;;-145.06;0.00;60892.56;4691316;29;20034;-91
2022/03/10 07:02:59;;;;;;;5.32;2.95;;;;;;;-145.06;0.00;60892.56;4687355;29;20038;-91
2022/03/10 07:05:39;;;;;;;6.00;3.50;;;;;;;-145.06;0.00;60892.56;4688760;29;20029;-91
2022/03/10 07:08:18;;;;;;;5.05;3.05;;;;;;;-145.06;0.00;60892.56;4678164;29;20058;-92
2022/03/10 07:10:57;;;;;;;5.80;3.17;;;;;;;-145.06;0.00;60892.56;4688555;29;20382;-91
2022/03/10 07:13:36;;;;;;;6.80;3.83;;;;;;;-145.06;0.00;60892.56;4673532;29;20034;-90
2022/03/10 07:16:15;;;;;;;6.32;3.78;;;;;;;-145.06;0.00;60892.56;4685262;29;20105;-92
2022/03/10 07:18:54;;;;;;;8.15;4.45;;;;;;;-145.06;0.00;60892.56;4691027;29;20038;-92
2022/03/10 07:21:33;;;;;;;8.80;4.05;;;;;;;-145.06;0.00;60892.56;4689632;29;20370;-90
2022/03/10 07:24:12;;;;;;;6.82;3.63;;;;;;;-145.06;0.00;60892.56;4687568;29;20477;-93
2022/03/10 07:26:51;;;;;;;4.82;3.10;;;;;;;-145.06;0.00;60892.56;4685426;29;20034;-91
2022/03/10 07:29:30;;;;;;;7.03;3.88;;;;;;;-145.06;0.00;60892.56;4686035;29;20034;-91
2022/03/10 07:32:09;;;;;;;7.07;3.58;;;;;;;-145.06;0.00;60892.56;4692504;29;20030;-91
2022/03/10 07:34:48;;;;;;;5.57;3.33;;;;;;;-145.06;0.00;60892.56;4687304;29;20367;-91
2022/03/10 07:37:27;;;;;;;5.50;3.22;;;;;;;-145.06;0.00;60892.56;4688918;29;20038;-92
2022/03/10 07:40:07;;;;;;;5.15;3.05;;;;;;;-145.06;0.00;60892.56;4690320;29;20492;-92
2022/03/10 07:42:47;;;;;;;4.53;2.90;;;;;;;-145.06;0.00;60892.56;4671039;29;20065;-90
2022/03/10 07:45:27;;;;;;;;;;;;;;;-145.06;0.00;60892.56;4671370;29;20362;-92
2022/03/10 07:48:06;;;;;;;5.72;2.80;;;;;;;-145.06;0.00;60892.56;4670559;29;19917;-92
2022/03/10 07:50:45;;;;;;;3.97;2.70;;;;;;;-145.06;0.00;60892.56;4681941;29;20034;-92
2022/03/10 07:53:24;;;;;;;3.87;2.40;;;;;;;-145.06;0.00;60892.56;4706422;29;20034;-91
2022/03/10 07:56:04;;;;;;;7.28;3.13;;;;;;;-145.06;0.00;60892.56;4685199;29;20030;-92
2022/03/10 07:58:43;;;;;;;4.63;2.67;;;;;;;-145.06;0.00;60892.56;4670873;29;20038;-91
2022/03/10 08:01:22;;;;;;;5.10;2.75;;;;;;;-145.06;0.00;60892.56;4686925;29;20492;-92
2022/03/10 08:04:02;;;;;;;4.57;2.58;;;;;;;-145.06;0.00;60892.56;4688115;29;20124;-92
2022/03/10 08:06:41;;;;;;;;;;;;;;;-145.06;0.00;60892.56;4680803;29;20026;-92
2022/03/10 08:09:20;;;;;;;4.20;2.67;;;;;;;-145.06;0.00;60892.56;4687701;29;19917;-89
2022/03/10 08:11:59;;;;;;;5.13;2.93;;;;;;;-145.06;0.00;60892.56;4693978;29;20069;-92
2022/03/10 08:14:38;;;;;;;4.97;2.73;;;;;;;-145.06;0.00;60892.56;4705688;29;20065;-91
2022/03/10 08:17:17;;;;;;;4.83;2.90;;;;;;;-145.06;0.00;60892.56;4701455;29;20777;-91
2022/03/10 08:19:57;;;;;;;4.38;2.60;;;;;;;-145.06;0.00;60892.56;4679622;29;20042;-92
2022/03/10 08:22:36;;;;;;;4.43;2.55;;;;;;;-145.06;0.00;60892.56;4667039;29;20632;-91
2022/03/10 08:25:15;;;;;;;4.60;2.67;;;;;;;-145.06;0.00;60892.56;4701448;29;20025;-92
2022/03/10 08:27:54;;;;;;;4.28;2.72;;;;;;;-145.06;0.00;60892.56;4684398;29;20046;-92
2022/03/10 08:30:33;;;;;;;4.60;2.90;;;;;;;-145.06;0.00;60892.56;4673256;29;20037;-91
2022/03/10 08:33:12;;;;;;;4.40;2.63;;;;;;;-145.06;0.00;60892.56;4687520;29;20283;-91
2022/03/10 08:35:52;;;;;;;5.68;3.22;;;;;;;-145.06;0.00;60892.56;4686362;29;20282;-92
2022/03/10 08:38:32;;;;;;;5.75;3.42;;;;;;;-145.06;0.00;60892.56;4674330;29;20090;-92
2022/03/10 08:41:11;;;;;;;4.67;2.93;;;;;;;-145.06;0.00;60892.56;4674489;29;20026;-91
2022/03/10 08:43:50;;;;;;;4.20;2.45;;;;;;;-145.06;0.00;60892.56;4669852;29;20034;-93
2022/03/10 08:46:29;;;;;;;4.17;2.97;;;;;;;-145.06;0.00;60892.56;4659297;29;20034;-93
2022/03/10 08:49:08;;;;;;;4.70;3.20;;;;;;;-145.06;0.00;60892.56;4674626;29;20097;-92
2022/03/10 08:51:49;;;;;;;5.90;3.80;;;;;;;-145.06;0.00;60892.56;4687282;29;20278;-92
2022/03/10 08:54:28;;;;;;;5.68;3.15;;;;;;;-145.06;0.00;60892.56;4674537;29;20185;-92
2022/03/10 08:57:07;;;;;;;5.70;3.60;;;;;;;-145.06;0.00;60892.56;4682253;29;20033;-91
2022/03/10 08:59:46;;;;;;;5.72;3.42;;;;;;;-145.06;0.00;60892.56;4684564;29;20034;-92
2022/03/10 09:02:25;;;;;;;5.82;3.38;;;;;;;-145.06;0.00;60892.56;4687499;29;20037;-92
2022/03/10 09:05:04;;;;;;;5.95;3.67;;;;;;;-145.06;0.00;60892.56;4674093;29;20038;-92
2022/03/10 09:07:44;;;;;;;4.65;3.17;;;;;;;-145.06;0.00;60892.56;4674548;29;20034;-93
2022/03/10 09:10:26;;;;;;;6.03;3.73;;;;;;;-145.06;0.00;60892.56;4687496;29;20046;-93
2022/03/10 09:13:10;;;;;;;5.47;3.47;;;;;;;-145.06;0.00;60892.56;4687623;29;20038;-93
2022/03/10 09:15:49;;;;;;;6.35;3.88;;;;;;;-145.06;0.00;60892.56;4674352;29;20145;-91
2022/03/10 09:18:28;;;;;;;5.13;3.50;;;;;;;-145.06;0.00;60892.56;4694850;29;20037;-92
2022/03/10 09:21:07;;;;;;;5.93;3.50;;;;;;;-145.06;0.00;60892.56;4661314;29;20041;-92
2022/03/10 09:23:46;;;;;;;5.90;3.63;;;;;;;-145.06;0.00;60892.56;4674150;29;20030;-91
2022/03/10 09:26:25;;;;;;;5.80;3.55;;;;;;;-145.06;0.00;60892.56;4686895;29;20038;-92
2022/03/10 09:29:08;;;;;;;7.05;4.07;;;;;;;-145.06;0.00;60892.56;4687095;29;20113;-91
2022/03/10 09:31:47;;;;;;;6.80;4.45;;;;;;;-145.06;0.00;60892.56;4686996;29;20029;-91
2022/03/10 09:34:27;;;;;;;7.53;4.65;;;;;;;-145.06;0.00;60892.56;4673844;29;20038;-92
2022/03/10 09:37:06;;;;;;;6.10;3.83;;;;;;;-145.06;0.00;60892.56;4687019;29;20038;-91
2022/03/10 09:39:45;;;;;;;6.15;3.80;;;;;;;-145.06;0.00;60892.56;4660457;29;20026;-90
2022/03/10 09:42:29;;;;;;;8.53;3.77;;;;;;;-145.06;0.00;60892.56;4686764;29;20034;-92
2022/03/10 09:45:10;;;;;;;5.28;3.20;;;;;;;-145.06;0.00;60892.56;4687107;29;20065;-92
2022/03/10 09:47:49;;;;;;;8.25;4.50;;;;;;;-145.06;0.00;60892.56;4673708;29;20073;-91
2022/03/10 09:50:31;;;;;;;5.85;3.70;;;;;;;-145.06;0.00;60892.56;4686888;29;20034;-92
2022/03/10 09:53:10;;;;;;;5.60;3.53;;;;;;;-145.06;0.00;60892.56;4673613;29;20121;-93
2022/03/10 09:55:49;;;;;;;6.85;3.80;;;;;;;-145.06;0.00;60892.56;4673759;29;20038;-92
2022/03/10 09:58:30;;;;;;;4.85;3.08;;;;;;;-145.06;0.00;60892.56;4674806;29;20050;-92
2022/03/10 10:01:08;;;;;;;5.18;3.17;;;;;;;-145.06;0.00;60892.56;4686953;29;20034;-92
2022/03/10 10:03:47;;;;;;;4.45;3.03;;;;;;;-145.06;0.00;60892.56;4690430;29;20050;-91
2022/03/10 10:06:27;;;;;;;5.40;3.08;;;;;;;-145.06;0.00;60892.56;4707467;29;20053;-93
2022/03/10 10:09:06;;;;;;;4.10;2.73;;;;;;;-145.06;0.00;60892.56;4668132;29;20121;-92
2022/03/10 10:11:44;;;;;;;3.47;2.50;;;;;;;-145.06;0.00;60892.56;4670974;29;20038;-92
2022/03/10 10:14:38;;;;;;;3.80;2.40;;;;;;;-145.06;0.00;60892.56;4691711;29;20037;-92
2022/03/10 10:17:31;;;;;;;4.60;2.70;;;;;;;-145.06;0.00;60892.56;4692109;29;20038;-93
2022/03/10 10:20:10;;;;;;;4.82;2.90;;;;;;;-145.06;0.00;60892.56;4659152;29;20022;-91
2022/03/10 10:22:51;;;;;;;6.05;2.90;;;;;;;-145.06;0.00;60892.56;4681729;29;20389;-90
2022/03/10 10:25:30;;;;;;;3.85;2.45;;;;;;;-145.06;0.00;60892.56;4691647;29;20037;-92
2022/03/10 10:28:22;;;;;;;4.63;2.60;;;;;;;-145.06;0.00;60892.56;4689141;29;20038;-92
2022/03/10 10:31:07;;;;;;;4.60;2.85;;;;;;;-145.06;0.00;60892.56;4679553;29;20041;-92
2022/03/10 10:34:10;;;;;;;5.30;2.80;;;;;;;-145.06;0.00;60892.56;4677397;29;20472;-92
2022/03/10 10:36:50;;;;;;;4.45;2.72;;;;;;;-145.06;0.00;60892.56;4671840;29;20046;-92
2022/03/10 10:39:29;;;;;;;5.05;3.00;;;;;;;-145.06;0.00;60892.56;4666498;29;20065;-92
2022/03/10 10:42:15;;;;;;;4.38;2.85;;;;;;;-145.06;0.00;60892.56;4676118;29;20033;-92
2022/03/10 10:44:55;;;;;;;4.22;2.88;;;;;;;-145.06;0.00;60892.56;4689308;29;20066;-93
2022/03/10 10:48:01;;;;;;;7.40;2.88;;;;;;;-145.06;0.00;60892.56;4689578;29;20025;-93
2022/03/10 10:50:45;;;;;;;4.72;2.50;;;;;;;-145.06;0.00;60892.56;4684525;29;20039;-93
2022/03/10 10:53:39;;;;;;;4.50;2.97;;;;;;;-145.06;0.00;60892.56;4658105;29;20034;-92
2022/03/10 10:56:19;;;;;;;4.78;2.85;;;;;;;-145.06;0.00;60892.56;4658342;29;20053;-92
2022/03/10 10:59:00;;;;;;;5.07;2.90;;;;;;;-145.06;0.00;60892.56;4689338;29;20038;-92
2022/03/10 11:01:40;;;;;;;5.05;3.28;;;;;;;-145.06;0.00;60892.56;4676172;29;20041;-93
2022/03/10 11:04:19;;;;;;;4.65;3.10;;;;;;;-145.06;0.00;60892.56;4688953;29;20041;-92
2022/03/10 11:06:58;;;;;;;5.93;3.58;;;;;;;-145.06;0.00;60892.56;4688715;29;20112;-92
2022/03/10 11:09:39;;;;;;;6.47;3.50;;;;;;;-145.06;0.00;60892.56;4675625;29;20113;-92
2022/03/10 11:12:21;;;;;;;4.88;3.20;;;;;;;-145.06;0.00;60892.56;4675738;29;20350;-93
2022/03/10 11:15:00;;;;;;;6.07;3.58;;;;;;;-145.06;0.00;60892.56;4657802;29;20034;-92
2022/03/10 11:17:40;;;;;;;6.85;3.65;;;;;;;-145.06;0.00;60892.56;4674473;29;20489;-93
2022/03/10 11:20:20;;;;;;;7.22;4.20;;;;;;;-145.06;0.00;60892.56;4682901;29;20038;-92
2022/03/10 11:23:24;;;;;;;5.70;3.47;;;;;;;-145.06;0.00;60892.56;4688373;29;20046;-93
2022/03/10 11:26:15;;;;;;;4.43;3.20;;;;;;;-145.06;0.00;60892.56;4662459;29;20121;-92
2022/03/10 11:28:57;;;;;;;4.50;3.28;;;;;;;-145.06;0.00;60892.56;4674977;29;20026;-92
2022/03/10 11:31:37;;;;;;;4.82;3.28;;;;;;;-145.06;0.00;60892.56;4675394;29;20037;-92
2022/03/10 11:34:52;;;;;;;5.80;3.45;;;;;;;-145.06;0.00;60892.56;4675893;29;20065;-92
2022/03/10 11:37:50;;;;;;;4.60;2.88;;;;;;;-145.06;0.00;60892.56;4670602;29;20030;-92
2022/03/10 11:40:42;;;;;;;5.88;3.33;;;;;;;-145.06;0.00;60892.56;4670643;29;20039;-92
2022/03/10 11:43:36;;;;;;;4.57;2.40;;;;;;;-145.06;0.00;60892.56;4670773;29;20026;-92
2022/03/10 11:46:17;;;;;;;3.95;2.75;;;;;;;-145.06;0.00;60892.56;4670261;29;20497;-92
2022/03/10 11:49:11;;;;;;;5.30;3.28;;;;;;;-145.06;0.00;60892.56;4669730;29;20112;-92
2022/03/10 11:51:56;;;;;;;5.30;2.58;;;;;;;-145.06;0.00;60892.56;4692156;29;20493;-91
2022/03/10 11:54:35;;;;;;;3.42;2.22;;;;;;;-145.06;0.00;60892.56;4705544;29;20030;-92
2022/03/10 11:57:14;;;;;;;4.47;2.97;;;;;;;-145.06;0.00;60892.56;4705821;29;20033;-92
2022/03/10 11:59:53;;;;;;;4.90;2.88;;;;;;;-145.06;0.00;60892.56;4705658;29;20057;-92
2022/03/10 12:02:39;;;;;;;8.40;3.17;;;;;;;-145.06;0.00;60892.56;4693615;29;20509;-92
2022/03/10 12:05:20;;;;;;;5.30;3.03;;;;;;;16.99;0.00;60892.56;4692585;29;20038;-92
2022/03/10 12:08:01;;;;;;;5.32;2.85;;;;;;;17.08;0.00;60892.56;4674738;29;20034;-94
2022/03/10 12:11:25;;;;;;;3.97;2.67;;;;;;;187.52;0.00;60892.56;4669577;29;20106;-92
2022/03/10 12:14:24;;;;;;;4.38;2.88;;;;;;;-145.06;0.00;60892.56;4674015;29;20030;-91
2022/03/10 12:17:03;;;;;;;5.72;3.15;;;;;;;-145.06;0.00;60892.56;4670293;29;20031;-92
2022/03/10 12:20:17;;;;;;;6.20;3.20;;;;;;;-145.06;0.00;60892.56;4672761;29;20366;-92
2022/03/10 12:23:02;;;;;;;6.32;3.78;;;;;;;-145.06;0.00;60892.56;4687097;29;20026;-91
2022/03/10 12:25:47;;;;;;;4.68;3.13;;;;;;;-145.06;0.00;60892.56;4679307;29;20034;-91
2022/03/10 12:28:30;;;;;;;6.32;3.70;;;;;;;-145.06;0.00;60892.56;4674401;29;20042;-91
2022/03/10 12:31:19;;;;;;;5.85;3.10;;;;;;;-145.06;0.00;60892.56;4675162;29;20390;-91
2022/03/10 12:34:00;;;;;;;4.10;2.90;;;;;;;-145.06;0.00;60892.56;4687224;29;20034;-91
2022/03/10 12:36:42;;;;;;;5.50;3.38;;;;;;;-145.06;0.00;60892.56;4669585;29;20042;-91
2022/03/10 12:39:25;;;;;;;4.25;2.90;;;;;;;-145.06;0.00;60892.56;4669533;29;20034;-92
2022/03/10 12:42:05;;;;;;;4.80;2.85;;;;;;;18.48;0.00;60892.56;4669399;29;20030;-92
2022/03/10 12:44:44;;;;;;;4.82;3.55;;;;;;;-145.06;0.00;60892.56;4657193;29;20030;-90
2022/03/10 12:47:25;;;;;;;5.03;3.13;;;;;;;-145.06;0.00;60892.56;4678439;29;20034;-92
2022/03/10 12:50:05;;;;;;;5.38;3.25;;;;;;;-145.06;0.00;60892.56;4673850;29;20034;-91
2022/03/10 12:52:44;;;;;;;9.23;3.42;;;;;;;18.08;0.00;60892.56;4674080;29;20061;-91
2022/03/10 12:55:27;;;;;;;4.40;2.72;;;;;;;-145.06;0.00;60892.56;4675132;29;20034;-91
2022/03/10 12:58:06;;;;;;;4.68;2.83;;;;;;;-145.06;0.00;60892.56;4687960;29;20041;-91
2022/03/10 13:00:45;;;;;;;5.07;3.28;;;;;;;-145.06;0.00;60892.56;4687144;29;20033;-91
2022/03/10 13:03:24;;;;;;;4.30;2.80;;;;;;;-145.06;0.00;60892.56;4687629;29;20120;-92
2022/03/10 13:06:13;;;;;;;4.15;2.72;;;;;;;-145.06;0.00;60892.56;4687371;29;20517;-92
2022/03/10 13:08:57;;;;;;;5.82;3.58;;;;;;;-145.06;0.00;60892.56;4669502;29;20046;-91
2022/03/10 13:11:39;;;;;;;5.53;2.88;;;;;;;-145.06;0.00;60892.56;4677931;29;20370;-89
2022/03/10 13:14:18;;;;;;;5.50;3.35;;;;;;;-145.06;0.00;60892.56;4682167;29;20061;-92
2022/03/10 13:16:57;;;;;;;5.93;3.63;;;;;;;-145.06;0.00;60892.56;4686868;29;20041;-93
2022/03/10 13:19:38;;;;;;;4.55;2.95;;;;;;;-145.06;0.00;60892.56;4686473;29;20287;-92
2022/03/10 13:22:17;;;;;;;3.78;2.80;;;;;;;-145.06;0.00;60892.56;4674390;29;20038;-92
2022/03/10 13:24:57;;;;;;;3.33;2.35;;;;;;;-145.06;0.00;60892.56;4692240;29;20041;-91
2022/03/10 13:27:36;;;;;;;3.95;2.58;;;;;;;-145.06;0.00;60892.56;4691001;29;20041;-92
2022/03/10 13:30:17;;;;;;;3.97;2.60;;;;;;;-145.06;0.00;60892.56;4678411;29;20037;-91
2022/03/10 13:32:59;;;;;;;4.97;3.20;;;;;;;-145.06;0.00;60892.56;4686545;29;20116;-92
2022/03/10 13:35:41;;;;;;;3.95;2.75;;;;;;;-145.06;0.00;60892.56;4686192;29;20030;-92
2022/03/10 13:38:22;;;;;;;3.90;2.75;;;;;;;-145.06;0.00;60892.56;4673308;29;20390;-92
2022/03/10 13:41:03;;;;;;;3.90;2.65;;;;;;;-145.06;0.00;60892.56;4682686;29;20030;-91
2022/03/10 13:43:42;;;;;;;3.75;2.70;;;;;;;-145.06;0.00;60892.56;4677174;29;20366;-91
2022/03/10 13:46:22;;;;;;;3.50;2.33;;;;;;;-145.06;0.00;60892.56;4703161;29;20029;-92
2022/03/10 13:49:04;;;;;;;4.00;2.42;;;;;;;-145.06;0.00;60892.56;4673649;29;20646;-92
2022/03/10 13:51:45;;;;;;;3.33;2.47;;;;;;;-145.06;0.00;60892.56;4680633;29;20041;-91
2022/03/10 13:54:26;;;;;;;3.85;2.45;;;;;;;-145.06;0.00;60892.56;4699733;29;20029;-91
2022/03/10 13:57:21;;;;;;;3.70;2.10;;;;;;;-145.06;0.00;60892.56;4698166;29;20030;-92
2022/03/10 14:00:05;;;;;;;3.38;2.15;;;;;;;-145.06;0.00;60892.56;4691433;29;20038;-92
2022/03/10 14:02:53;;;;;;;3.78;2.22;;;;;;;-145.06;0.00;60892.56;4677419;29;20041;-91
2022/03/10 14:05:46;;;;;;;4.78;2.85;;;;;;;-145.06;0.00;60892.56;4683225;29;20049;-93
2022/03/10 14:08:36;;;;;;;3.65;2.50;;;;;;;-145.06;0.00;60892.56;4681884;29;20034;-91
2022/03/10 14:11:15;;;;;;;5.93;2.63;;;;;;;-145.06;0.00;60892.56;4687410;29;20033;-92
2022/03/10 14:14:03;;;;;;;2.22;1.63;;;;;;;-145.06;0.00;60892.56;4690163;29;20369;-91
2022/03/10 14:16:57;;;;;;;3.38;2.28;;;;;;;-145.06;0.00;60892.56;4688763;29;20030;-91
2022/03/10 14:19:37;;;;;;;2.55;1.65;;;;;;;-145.06;0.00;60892.56;4688874;29;20029;-90
2022/03/10 14:22:21;;;;;;;2.42;1.60;;;;;;;-145.06;0.00;60892.56;4689757;29;20038;-90
2022/03/10 14:25:01;;;;;;;1.98;1.50;;;;;;;-145.06;0.00;60892.56;4689515;29;20058;-93
2022/03/10 14:27:44;;;;;;;1.95;1.55;;;;;;;-145.06;0.00;60892.56;4672731;29;20037;-91
2022/03/10 14:30:27;;;;;;;1.67;1.30;;;;;;;-145.06;0.00;60892.56;4691320;29;20062;-91
2022/03/10 14:33:07;;;;;;;2.63;1.50;;;;;;;-145.06;0.00;60892.56;4688444;29;20038;-90
2022/03/10 14:35:47;;;;;;;1.80;1.25;;;;;;;-145.06;0.00;60892.56;4689704;29;20030;-92
2022/03/10 14:38:26;;;;;;;1.08;0.93;;;;;;;-145.06;0.00;60892.56;4676175;29;20042;-91
2022/03/10 14:41:06;;;;;;;1.73;1.23;;;;;;;-145.06;0.00;60892.56;4689216;29;20437;-91
2022/03/10 14:44:10;;;;;;;1.70;1.20;;;;;;;-145.06;0.00;60892.56;4695072;29;20314;-92
2022/03/10 14:46:49;;;;;;;1.85;1.30;;;;;;;-145.06;0.00;60892.56;4668258;29;20377;-92
2022/03/10 14:49:29;;;;;;;1.85;1.50;;;;;;;-145.06;0.00;60892.56;4672712;29;20034;-91
2022/03/10 14:52:17;;;;;;;2.80;1.52;;;;;;;17.83;0.00;60892.56;4676777;29;20034;-91
2022/03/10 14:54:56;;;;;;;1.92;1.30;;;;;;;-145.06;0.00;60892.56;4675772;29;20046;-92
2022/03/10 14:57:35;;;;;;;2.03;1.50;;;;;;;-145.06;0.00;60892.56;4675304;29;20052;-91
2022/03/10 15:00:17;;;;;;;3.72;1.35;;;;;;;-145.06;0.00;60892.56;4673500;29;20049;-92
2022/03/10 15:02:59;;;;;;;1.98;1.13;;;;;;;18.48;0.00;60892.56;4676208;29;20037;-92
2022/03/10 15:05:47;;;;;;;2.00;1.17;;;;;;;-145.06;0.00;60892.56;4675854;29;20030;-92
2022/03/10 15:08:26;;;;;;;2.47;1.48;;;;;;;-145.06;0.00;60892.56;4678419;29;20057;-92
2022/03/10 15:11:08;;;;;;;2.08;1.55;;;;;;;-145.06;0.00;60892.56;4676376;29;20073;-92
2022/03/10 15:13:50;;;;;;;1.90;1.40;;;;;;;-145.06;0.00;60892.56;4693491;29;20037;-92
2022/03/10 15:16:44;;;;;;;2.00;1.42;;;;;;;-145.06;0.00;60892.56;4674638;29;20033;-92
2022/03/10 15:19:23;;;;;;;2.65;1.15;;;;;;;-145.06;0.00;60892.56;4676106;29;20370;-93
2022/03/10 15:22:03;;;;;;;2.22;1.10;;;;;;;-145.06;0.00;60892.56;4676302;29;20077;-92
2022/03/10 15:24:57;;;;;;;1.75;1.27;;;;;;;-145.06;0.00;60892.56;4676849;29;20065;-92
2022/03/10 15:27:42;;;;;;;2.08;1.30;;;;;;;-145.06;0.00;60892.56;4676238;29;20038;-92
2022/03/10 15:30:24;;;;;;;2.58;1.40;;;;;;;-145.06;0.00;60892.56;4686980;29;20029;-92
2022/03/10 15:33:05;;;;;;;1.73;1.10;;;;;;;-145.06;0.00;60892.56;4663338;29;20030;-91
2022/03/10 15:35:52;;;;;;;1.60;1.10;;;;;;;-145.06;0.00;60892.56;4676180;29;20034;-91
2022/03/10 15:38:38;;;;;;;1.23;1.00;;;;;;;-145.06;0.00;60892.56;4672087;29;20042;-91
2022/03/10 15:41:17;;;;;;;1.95;1.23;;;;;;;-145.06;0.00;60892.56;4668404;29;20065;-94
2022/03/10 15:43:56;;;;;;;2.07;1.37;;;;;;;-145.06;0.00;60892.56;4686457;29;20383;-93
2022/03/10 15:47:28;;;;;;;1.48;1.02;;;;;;;-145.06;0.00;60892.56;4683058;29;20278;-93
2022/03/10 15:50:22;;;;;;;1.50;1.08;;;;;;;18.48;0.00;60892.56;4667789;29;20053;-92
2022/03/10 15:53:06;;;;;;;1.02;0.70;;;;;;;18.48;0.00;60892.56;4674329;29;20034;-92
2022/03/10 15:56:03;;;;;;;1.20;0.80;;;;;;;-145.06;0.00;60892.56;4673120;29;20501;-92
2022/03/10 15:58:48;;;;;;;5.60;1.48;;;;;;;-145.06;0.00;60892.56;4670527;29;20069;-91
2022/03/10 16:03:20;;;;;;;;;;;;;;;;;;;;;
2022/03/10 16:13:11;;;;;;;2.05;0.70;;;;;;;-145.06;0.00;60892.56;4576055;30;20040;-93
2022/03/10 16:16:25;;;;;;;;;;;;;;;;;;;;;